Pagrindinis puslapis
METAR-TAF:

METAR-TAF

Oro uostai :

Leknes, Norvegija

platuma: 68-09N, ilguma: 013-37E, Aukštis: 2 m

Dabartinis oras

Ataskaita buvo paskelbta 30 minutes, ne 10:50 UTC
Vėjas 2 kt iš Šiaurės Rytų
Temperatūra -3°C
Drėgmė 80%
Slėgis 1003 hPa
Matomumas 10 km arba daugiau
Mažai debesys ne aukštis 2000 ft

METAR: ENLK 071050Z 05002KT 9999 FEW020 M03/M06 Q1003

Laikas: 12:20 (11:20 UTC)


TAF: trūkstamas

Orai ataskaitas ir orų prognozės (METAR, TAF).

turimą stotys yra geltonos ir raudonos taškus žemėlapyje.

Perkelti pele per norėdami pamatyti stoties vardą.

Tada spustelėkite, norėdami matyti oro stebėjimo ir prognozės.

Norėdami pakeisti žemėlapį: spustelėkite ant žalios mygtukų su juodo kryžiaus žemyn,; žalią mygtuką su brūkšneliu, jei norite nutolinti; arba žalių rodyklių gretimoms žemėlapius.


METAR-TAF: